createdAt,value
2019-03-12T00:01:48.188Z,3.37
2019-03-12T00:04:14.542Z,3.35
2019-03-12T00:06:42.711Z,3.47
2019-03-12T00:09:09.049Z,3.45
2019-03-12T00:11:35.353Z,3.90
2019-03-12T00:14:03.513Z,3.45
2019-03-12T00:16:29.879Z,3.50
2019-03-12T00:18:56.119Z,3.47
2019-03-12T00:21:22.496Z,3.00
2019-03-12T00:23:48.642Z,3.17
2019-03-12T00:26:15.032Z,3.90
2019-03-12T00:28:41.298Z,3.05
2019-03-12T00:31:07.652Z,3.22
2019-03-12T00:33:33.929Z,3.45
2019-03-12T00:36:00.295Z,3.10
2019-03-12T00:38:26.609Z,2.92
2019-03-12T00:40:52.863Z,3.52
2019-03-12T00:43:21.940Z,4.03
2019-03-12T00:45:48.232Z,3.33
2019-03-12T00:48:14.669Z,7.15
2019-03-12T00:50:40.950Z,7.00
2019-03-12T00:53:07.254Z,6.58
2019-03-12T00:55:33.459Z,5.83
2019-03-12T00:58:01.515Z,4.40
2019-03-12T01:00:27.804Z,4.30
2019-03-12T01:02:54.025Z,3.98
2019-03-12T01:05:20.338Z,6.70
2019-03-12T01:07:46.644Z,8.78
2019-03-12T01:10:16.184Z,8.98
2019-03-12T01:12:42.495Z,7.20
2019-03-12T01:15:11.161Z,6.70
2019-03-12T01:17:37.416Z,5.67
2019-03-12T01:20:06.918Z,7.00
2019-03-12T01:22:33.187Z,8.30
2019-03-12T01:24:59.362Z,8.38
2019-03-12T01:27:25.570Z,7.53
2019-03-12T01:29:51.844Z,7.85
2019-03-12T01:32:18.146Z,6.97
2019-03-12T01:34:44.504Z,2.87
2019-03-12T01:37:10.796Z,2.58
2019-03-12T01:39:37.136Z,3.08
2019-03-12T01:42:03.454Z,4.15
2019-03-12T01:44:29.755Z,4.33
2019-03-12T01:46:59.007Z,3.12
2019-03-12T01:51:51.489Z,3.05
2019-03-12T01:54:17.805Z,4.92
2019-03-12T01:56:44.142Z,5.00
2019-03-12T01:59:10.452Z,5.85
2019-03-12T02:01:36.763Z,4.53
2019-03-12T02:04:04.470Z,5.72
2019-03-12T02:06:30.724Z,4.55
2019-03-12T02:08:56.977Z,5.00
2019-03-12T02:11:23.278Z,4.90
2019-03-12T02:13:49.491Z,4.30
2019-03-12T02:16:17.453Z,3.12
2019-03-12T02:18:43.804Z,2.70
2019-03-12T02:21:10.018Z,2.55
2019-03-12T02:23:36.293Z,4.08
2019-03-12T02:26:02.669Z,4.90
2019-03-12T02:28:28.889Z,4.97
2019-03-12T02:30:55.204Z,4.50
2019-03-12T02:33:24.480Z,4.78
2019-03-12T02:38:17.018Z,4.62
2019-03-12T02:40:43.314Z,4.28
2019-03-12T02:43:09.564Z,4.78
2019-03-12T02:45:35.866Z,4.40
2019-03-12T02:48:02.208Z,3.10
2019-03-12T02:50:28.397Z,5.47
2019-03-12T02:52:54.665Z,5.45
2019-03-12T02:55:20.940Z,4.50
2019-03-12T02:57:47.134Z,5.22
2019-03-12T03:00:18.931Z,5.20
2019-03-12T03:02:45.185Z,3.37
2019-03-12T03:05:11.238Z,2.72
2019-03-12T03:07:39.349Z,2.42
2019-03-12T03:10:07.235Z,2.77
2019-03-12T03:12:33.550Z,2.00
2019-03-12T03:15:03.961Z,2.30
2019-03-12T03:17:33.196Z,1.95
2019-03-12T03:22:25.667Z,2.40
2019-03-12T03:24:51.932Z,2.37
2019-03-12T03:27:18.170Z,2.17
2019-03-12T03:29:44.468Z,2.27
2019-03-12T03:32:15.461Z,2.47
2019-03-12T03:34:41.639Z,1.80
2019-03-12T03:37:07.902Z,2.27
2019-03-12T03:39:34.158Z,1.95
2019-03-12T03:42:00.440Z,1.57
2019-03-12T03:44:26.720Z,1.65
2019-03-12T03:46:52.934Z,2.08
2019-03-12T03:49:19.279Z,2.00
2019-03-12T03:51:45.673Z,1.95
2019-03-12T03:54:11.963Z,1.90
2019-03-12T03:56:38.275Z,3.40
2019-03-12T03:59:04.616Z,2.62
2019-03-12T04:01:30.915Z,2.67
2019-03-12T04:03:57.090Z,2.33
2019-03-12T04:06:23.333Z,2.58
2019-03-12T04:08:49.659Z,4.00
2019-03-12T04:11:15.943Z,3.67
2019-03-12T04:13:42.251Z,3.30
2019-03-12T04:16:10.338Z,2.30
2019-03-12T04:18:36.635Z,2.05
2019-03-12T04:21:02.946Z,2.00
2019-03-12T04:23:29.142Z,2.08
2019-03-12T04:25:55.525Z,2.35
2019-03-12T04:28:21.815Z,3.08
2019-03-12T04:30:48.109Z,2.20
2019-03-12T04:33:42.167Z,2.90
2019-03-12T04:36:11.545Z,2.05
2019-03-12T04:41:08.153Z,2.75
2019-03-12T04:43:34.352Z,2.27
2019-03-12T04:46:00.714Z,2.72
2019-03-12T04:48:26.892Z,2.98
2019-03-12T04:50:53.259Z,2.95
2019-03-12T04:53:19.545Z,3.37
2019-03-12T04:55:45.850Z,3.02
2019-03-12T04:58:12.151Z,2.92
2019-03-12T05:00:40.274Z,3.67
2019-03-12T05:03:06.578Z,3.05
2019-03-12T05:05:32.872Z,3.37
2019-03-12T05:07:59.151Z,3.70
2019-03-12T05:10:25.361Z,3.42
2019-03-12T05:12:53.502Z,3.85
2019-03-12T05:15:19.792Z,3.60
2019-03-12T05:17:46.119Z,3.77
2019-03-12T05:20:14.416Z,3.72
2019-03-12T05:22:40.748Z,3.22
2019-03-12T05:25:13.204Z,3.10
2019-03-12T05:27:39.550Z,3.35
2019-03-12T05:30:16.780Z,3.42
2019-03-12T05:32:43.090Z,3.65
2019-03-12T05:35:09.422Z,3.02
2019-03-12T05:37:35.818Z,3.60
2019-03-12T05:40:03.529Z,3.65
2019-03-12T05:42:29.876Z,3.77
2019-03-12T05:44:56.167Z,3.47
2019-03-12T05:47:22.480Z,3.90
2019-03-12T05:49:48.772Z,4.47
2019-03-12T05:52:15.097Z,4.67
2019-03-12T05:54:41.393Z,5.10
2019-03-12T05:57:07.701Z,4.75
2019-03-12T05:59:34.041Z,4.35
2019-03-12T06:02:00.348Z,4.50
2019-03-12T06:04:26.621Z,4.58
2019-03-12T06:06:52.906Z,3.80
2019-03-12T06:09:29.700Z,4.37
2019-03-12T06:11:47.471Z,4.47
2019-03-12T06:14:15.062Z,3.98
2019-03-12T06:16:41.307Z,4.37
2019-03-12T06:19:07.544Z,4.25
2019-03-12T06:21:33.810Z,5.15
2019-03-12T06:24:07.204Z,5.30
2019-03-12T06:26:33.461Z,4.45
2019-03-12T06:28:59.712Z,3.80
2019-03-12T06:31:27.711Z,4.12
2019-03-12T06:33:55.652Z,3.55
2019-03-12T06:36:24.700Z,5.67
2019-03-12T06:38:58.380Z,4.67
2019-03-12T06:41:32.294Z,4.10
2019-03-12T06:44:21.921Z,4.70
2019-03-12T06:47:05.430Z,4.72
2019-03-12T06:49:33.550Z,4.58
2019-03-12T06:52:01.611Z,4.47
2019-03-12T06:54:44.669Z,4.50
2019-03-12T06:59:55.792Z,5.00
2019-03-12T07:02:23.893Z,4.35
2019-03-12T07:05:29.846Z,4.92
2019-03-12T07:10:52.553Z,5.33
2019-03-12T07:13:20.765Z,5.30
2019-03-12T07:15:53.781Z,4.00
2019-03-12T07:21:50.529Z,5.17
2019-03-12T07:24:30.478Z,4.85
2019-03-12T07:28:00.236Z,4.80
2019-03-12T07:30:13.463Z,5.28
2019-03-12T07:32:44.178Z,5.90
2019-03-12T07:35:14.808Z,5.03
2019-03-12T07:37:42.933Z,4.90
2019-03-12T07:40:27.601Z,4.85
2019-03-12T07:43:01.872Z,5.00
2019-03-12T07:45:42.219Z,3.85
2019-03-12T07:48:25.383Z,4.28
2019-03-12T07:50:56.520Z,4.95
2019-03-12T07:53:27.528Z,4.12
2019-03-12T07:56:00.573Z,4.90
2019-03-12T07:58:36.074Z,4.20
2019-03-12T08:01:10.706Z,4.35
2019-03-12T08:03:47.939Z,4.08
2019-03-12T08:06:18.682Z,3.87
2019-03-12T08:08:55.502Z,4.80
2019-03-12T08:11:43.260Z,5.08
2019-03-12T08:14:29.650Z,4.95
2019-03-12T08:17:03.584Z,5.72
2019-03-12T08:19:37.936Z,4.25
2019-03-12T08:22:06.039Z,4.53
2019-03-12T08:24:36.842Z,3.95
2019-03-12T08:27:04.999Z,4.15
2019-03-12T08:29:32.933Z,3.92
2019-03-12T08:32:00.898Z,6.15
2019-03-12T08:34:37.734Z,4.33
2019-03-12T08:37:07.312Z,4.95
2019-03-12T08:39:53.734Z,3.65
2019-03-12T08:42:33.877Z,4.22
2019-03-12T08:45:02.420Z,4.70
2019-03-12T08:47:39.142Z,4.08
2019-03-12T08:50:18.496Z,4.85
2019-03-12T08:52:55.625Z,4.78
2019-03-12T08:55:26.291Z,4.35
2019-03-12T08:57:55.489Z,4.00
2019-03-12T09:03:20.407Z,4.62
2019-03-12T09:05:57.255Z,3.33
2019-03-12T09:08:25.311Z,5.40
2019-03-12T09:11:05.301Z,4.75
2019-03-12T09:13:35.886Z,4.58
2019-03-12T09:16:03.906Z,5.00
2019-03-12T09:18:45.068Z,5.50
2019-03-12T09:21:13.209Z,5.62
2019-03-12T09:23:46.884Z,4.95
2019-03-12T09:26:16.252Z,4.17
2019-03-12T09:31:32.808Z,4.22
2019-03-12T09:34:00.777Z,3.42
2019-03-12T09:36:31.678Z,4.35
2019-03-12T09:39:16.247Z,4.60
2019-03-12T09:41:59.502Z,4.72
2019-03-12T09:44:30.560Z,5.05
2019-03-12T09:46:58.658Z,4.65
2019-03-12T09:49:38.842Z,5.33
2019-03-12T09:52:09.458Z,4.25
2019-03-12T09:54:37.549Z,4.60
2019-03-12T09:57:05.568Z,4.50
2019-03-12T09:59:33.737Z,3.98
2019-03-12T10:02:06.667Z,4.45
2019-03-12T10:04:34.658Z,3.60
2019-03-12T10:07:20.622Z,4.05
2019-03-12T10:10:03.613Z,3.60
2019-03-12T10:12:48.718Z,3.85
2019-03-12T10:15:33.983Z,3.70
2019-03-12T10:18:02.816Z,3.70
2019-03-12T10:20:48.781Z,3.95
2019-03-12T10:23:19.727Z,3.42
2019-03-12T10:26:04.497Z,3.50
2019-03-12T10:28:35.407Z,3.30
2019-03-12T10:31:03.250Z,3.47
2019-03-12T10:33:31.300Z,3.22
2019-03-12T10:35:59.486Z,3.22
2019-03-12T10:39:08.167Z,3.12
2019-03-12T10:41:38.756Z,3.05
2019-03-12T10:44:06.671Z,3.17
2019-03-12T10:46:37.271Z,3.10
2019-03-12T10:49:04.062Z,2.75
2019-03-12T10:51:30.416Z,2.90
2019-03-12T10:53:56.689Z,1.98
2019-03-12T10:56:22.719Z,3.00
2019-03-12T10:58:48.901Z,2.80
2019-03-12T11:01:15.024Z,3.98
2019-03-12T11:03:41.302Z,3.05
2019-03-12T11:06:07.567Z,2.55
2019-03-12T11:08:37.571Z,2.10
2019-03-12T11:11:04.129Z,2.92
2019-03-12T11:13:30.354Z,2.70
2019-03-12T11:15:56.635Z,3.02
2019-03-12T11:18:22.917Z,3.02
2019-03-12T11:20:49.223Z,2.52
2019-03-12T11:23:15.555Z,2.87
2019-03-12T11:25:49.347Z,3.52
2019-03-12T11:28:15.534Z,3.12
2019-03-12T11:30:41.716Z,3.33
2019-03-12T11:33:10.450Z,3.40
2019-03-12T11:35:39.097Z,2.95
2019-03-12T11:38:04.675Z,3.40
2019-03-12T11:40:32.542Z,3.70
2019-03-12T11:42:59.087Z,3.20
2019-03-12T11:45:35.850Z,3.47
2019-03-12T11:47:53.565Z,3.08
2019-03-12T11:50:24.909Z,4.05
2019-03-12T11:52:55.735Z,3.27
2019-03-12T11:55:19.540Z,5.65
2019-03-12T11:57:45.930Z,4.15
2019-03-12T12:00:24.667Z,4.03
2019-03-12T12:02:59.924Z,4.62
2019-03-12T12:05:19.075Z,4.37
2019-03-12T12:07:45.307Z,5.90
2019-03-12T12:10:14.065Z,4.00
2019-03-12T12:12:40.430Z,3.95
2019-03-12T12:15:09.852Z,4.42
2019-03-12T12:17:36.038Z,5.05
2019-03-12T12:20:03.429Z,4.33
2019-03-12T12:22:31.144Z,5.65
2019-03-12T12:24:57.483Z,4.10
2019-03-12T12:27:23.781Z,5.12
2019-03-12T12:29:50.058Z,4.87
2019-03-12T12:32:16.301Z,5.33
2019-03-12T12:34:42.570Z,5.05
2019-03-12T12:37:08.795Z,4.97
2019-03-12T12:39:35.048Z,5.62
2019-03-12T12:42:01.332Z,5.22
2019-03-12T12:44:27.614Z,5.65
2019-03-12T12:46:54.015Z,4.70
2019-03-12T12:49:20.424Z,4.90
2019-03-12T12:51:46.737Z,4.97
2019-03-12T12:54:13.048Z,4.30
2019-03-12T12:56:39.373Z,6.22
2019-03-12T12:59:05.681Z,5.10
2019-03-12T13:01:31.829Z,5.70
2019-03-12T13:03:58.174Z,5.65
2019-03-12T13:06:24.442Z,5.78
2019-03-12T13:08:50.784Z,5.42
2019-03-12T13:11:17.095Z,6.03
2019-03-12T13:13:43.483Z,5.72
2019-03-12T13:16:09.675Z,5.08
2019-03-12T13:18:38.240Z,5.12
2019-03-12T13:21:04.501Z,5.35
2019-03-12T13:23:30.596Z,5.92
2019-03-12T13:25:56.883Z,6.85
2019-03-12T13:28:23.195Z,6.17
2019-03-12T13:30:49.451Z,6.37
2019-03-12T13:33:15.779Z,4.75
2019-03-12T13:35:42.132Z,6.20
2019-03-12T13:38:08.297Z,6.97
2019-03-12T13:40:34.591Z,5.50
2019-03-12T13:43:00.902Z,6.08
2019-03-12T13:45:30.036Z,3.40
2019-03-12T13:47:56.629Z,5.35
2019-03-12T13:50:23.200Z,5.92
2019-03-12T13:52:49.440Z,6.03
2019-03-12T13:55:16.571Z,5.60
2019-03-12T13:57:43.118Z,8.00
2019-03-12T14:00:40.147Z,6.17
2019-03-12T14:03:06.438Z,5.60
2019-03-12T14:05:32.803Z,6.37
2019-03-12T14:08:29.048Z,6.15
2019-03-12T14:26:04.781Z,7.03
2019-03-12T14:28:30.932Z,6.78
2019-03-12T14:30:57.266Z,6.25
2019-03-12T14:33:23.536Z,7.00
2019-03-12T14:35:51.704Z,7.35
2019-03-12T14:38:18.081Z,9.13
2019-03-12T14:40:44.288Z,11.25
2019-03-12T14:43:10.638Z,6.42
2019-03-12T14:45:38.532Z,5.60
2019-03-12T14:48:04.692Z,12.40
2019-03-12T14:50:32.179Z,15.30
2019-03-12T14:53:21.726Z,6.75
2019-03-12T14:55:44.228Z,8.70
2019-03-12T14:58:10.440Z,11.70
2019-03-12T15:00:36.727Z,7.42
2019-03-12T15:03:03.049Z,9.73
2019-03-12T15:05:29.293Z,9.95
2019-03-12T15:07:55.661Z,8.43
2019-03-12T15:10:21.954Z,11.78
2019-03-12T15:12:48.227Z,8.83
2019-03-12T15:15:14.543Z,6.67
2019-03-12T15:17:40.734Z,5.67
2019-03-12T15:20:12.033Z,4.25
2019-03-12T15:22:38.286Z,5.95
2019-03-12T15:25:12.075Z,10.40
2019-03-12T15:27:38.232Z,7.40
2019-03-12T15:30:23.450Z,25.17
2019-03-12T15:32:51.277Z,6.10
2019-03-12T15:35:17.560Z,6.03
2019-03-12T15:37:43.903Z,5.50
2019-03-12T15:40:11.364Z,15.13
2019-03-12T15:42:37.728Z,10.85
2019-03-12T15:45:09.693Z,6.62
2019-03-12T15:47:38.806Z,17.50
2019-03-12T15:50:12.952Z,10.55
2019-03-12T15:52:35.410Z,16.77
2019-03-12T15:55:01.681Z,7.12
2019-03-12T15:57:27.776Z,16.45
2019-03-12T15:59:54.065Z,5.28
2019-03-12T16:02:20.252Z,5.28
2019-03-12T16:04:48.355Z,8.15
2019-03-12T16:07:14.603Z,16.17
2019-03-12T16:09:44.311Z,5.75
2019-03-12T16:15:26.939Z,8.50
2019-03-12T16:18:30.963Z,5.75
2019-03-12T16:20:36.679Z,6.42
2019-03-12T16:23:04.881Z,29.82
2019-03-12T16:25:31.147Z,13.60
2019-03-12T16:27:57.461Z,10.95
2019-03-12T16:30:23.749Z,8.80
2019-03-12T16:32:50.189Z,39.00
2019-03-12T16:35:16.429Z,38.65
2019-03-12T16:37:42.707Z,10.72
2019-03-12T16:43:03.236Z,14.25
2019-03-12T16:45:29.634Z,8.85
2019-03-12T16:47:55.920Z,20.00
2019-03-12T16:50:24.399Z,5.87
2019-03-12T16:52:50.723Z,4.78
2019-03-12T16:55:17.731Z,4.40
2019-03-12T16:57:44.015Z,4.97
2019-03-12T17:00:11.576Z,4.17
2019-03-12T17:02:37.852Z,3.87
2019-03-12T17:05:05.799Z,5.47
2019-03-12T17:07:36.492Z,4.25
2019-03-12T17:10:05.302Z,3.20
2019-03-12T17:12:31.610Z,3.70
2019-03-12T17:14:57.986Z,4.08
2019-03-12T17:17:24.173Z,3.67
2019-03-12T17:19:50.400Z,4.28
2019-03-12T17:22:17.231Z,4.28
2019-03-12T17:24:43.573Z,6.12
2019-03-12T17:27:09.750Z,8.10
2019-03-12T17:29:36.215Z,16.02
2019-03-12T17:32:02.156Z,27.00
2019-03-12T17:34:35.850Z,27.17
2019-03-12T17:36:55.975Z,24.55
2019-03-12T17:39:22.152Z,21.50
2019-03-12T17:41:48.075Z,17.62
2019-03-12T17:44:14.316Z,10.45
2019-03-12T17:46:40.472Z,10.35
2019-03-12T17:49:06.767Z,15.58
2019-03-12T17:51:32.945Z,12.93
2019-03-12T17:53:59.183Z,12.07
2019-03-12T17:56:25.681Z,18.30
2019-03-12T17:58:53.695Z,15.83
2019-03-12T18:01:29.339Z,18.82
2019-03-12T18:03:50.007Z,12.60
2019-03-12T18:06:16.742Z,19.92
2019-03-12T18:08:42.946Z,10.30
2019-03-12T18:11:09.088Z,7.50
2019-03-12T18:13:35.239Z,11.35
2019-03-12T18:16:01.176Z,13.32
2019-03-12T18:18:27.211Z,14.38
2019-03-12T18:20:53.501Z,15.55
2019-03-12T18:23:19.518Z,16.15
2019-03-12T18:25:47.480Z,11.55
2019-03-12T18:28:13.716Z,13.15
2019-03-12T18:30:39.902Z,18.52
2019-03-12T18:33:06.153Z,22.02
2019-03-12T18:35:32.492Z,15.78
2019-03-12T18:37:58.601Z,29.92
2019-03-12T18:40:26.049Z,30.12
2019-03-12T18:42:53.775Z,36.42
2019-03-12T18:45:42.739Z,33.23
2019-03-12T18:48:09.016Z,33.73
2019-03-12T18:50:36.169Z,31.95
2019-03-12T18:53:02.242Z,31.48
2019-03-12T18:55:31.978Z,18.75
2019-03-12T18:57:58.065Z,13.93
2019-03-12T19:00:24.223Z,15.95
2019-03-12T19:02:50.353Z,16.05
2019-03-12T19:05:16.725Z,21.42
2019-03-12T19:07:45.411Z,14.63
2019-03-12T19:10:13.181Z,19.35
2019-03-12T19:12:55.737Z,15.83
2019-03-12T19:15:20.042Z,11.15
2019-03-12T19:20:58.187Z,8.30
2019-03-12T19:23:24.721Z,12.30
2019-03-12T19:25:52.836Z,11.35
2019-03-12T19:28:19.259Z,9.08
2019-03-12T19:30:45.793Z,8.00
2019-03-12T19:33:17.260Z,8.48
2019-03-12T19:35:44.650Z,7.53
2019-03-12T19:38:10.760Z,10.43
2019-03-12T19:40:41.806Z,10.10
2019-03-12T19:43:07.931Z,9.75
2019-03-12T19:45:33.883Z,10.43
2019-03-12T19:47:59.814Z,8.40
2019-03-12T19:50:25.855Z,8.18
2019-03-12T19:52:51.906Z,13.88
2019-03-12T19:55:33.168Z,32.98
2019-03-12T19:57:59.306Z,11.48
2019-03-12T20:00:26.352Z,10.63
2019-03-12T20:02:52.871Z,20.25
2019-03-12T20:05:18.918Z,16.90
2019-03-12T20:07:45.037Z,10.85
2019-03-12T20:10:31.854Z,9.10
2019-03-12T20:13:21.519Z,10.93
2019-03-12T20:16:12.719Z,12.73
2019-03-12T20:18:45.285Z,12.00
2019-03-12T20:21:36.502Z,11.38
2019-03-12T20:24:15.182Z,8.93
2019-03-12T20:27:00.153Z,7.42
2019-03-12T20:29:29.921Z,9.00
2019-03-12T20:32:33.539Z,8.38
2019-03-12T20:35:30.153Z,11.45
2019-03-12T20:38:25.989Z,10.98
2019-03-12T20:41:15.408Z,15.48
2019-03-12T20:44:05.076Z,25.30
2019-03-12T20:46:57.832Z,27.70
2019-03-12T20:49:54.952Z,17.42
2019-03-12T20:52:41.612Z,14.47
2019-03-12T20:55:37.051Z,12.78
2019-03-12T20:58:35.803Z,8.38
2019-03-12T21:01:27.954Z,6.45
2019-03-12T21:04:17.106Z,8.48
2019-03-12T21:07:02.519Z,9.70
2019-03-12T21:09:48.543Z,13.30
2019-03-12T21:12:18.346Z,9.28
2019-03-12T21:14:50.879Z,10.05
2019-03-12T21:17:35.693Z,9.13
2019-03-12T21:20:28.603Z,8.38
2019-03-12T21:23:32.323Z,8.53
2019-03-12T21:26:23.642Z,12.88
2019-03-12T21:28:56.122Z,10.65
2019-03-12T21:31:22.167Z,8.25
2019-03-12T21:33:52.653Z,7.25
2019-03-12T21:36:18.695Z,13.62
2019-03-12T21:38:44.757Z,9.18
2019-03-12T21:41:10.816Z,9.00
2019-03-12T21:43:36.900Z,11.90
2019-03-12T21:46:03.182Z,11.22
2019-03-12T21:48:29.125Z,13.93
2019-03-12T21:50:55.274Z,14.38
2019-03-12T21:53:21.347Z,12.80
2019-03-12T21:55:47.438Z,9.45
2019-03-12T21:58:17.851Z,8.13
2019-03-12T22:00:43.987Z,8.23
2019-03-12T22:03:10.007Z,7.75
2019-03-12T22:05:36.174Z,7.22
2019-03-12T22:08:02.137Z,8.18
2019-03-12T22:10:28.211Z,9.35
2019-03-12T22:12:54.280Z,6.95
2019-03-12T22:15:20.323Z,7.62
2019-03-12T22:17:46.272Z,7.85
2019-03-12T22:20:13.222Z,7.67
2019-03-12T22:22:41.148Z,7.28
2019-03-12T22:25:11.440Z,7.97
2019-03-12T22:27:37.343Z,8.60
2019-03-12T22:30:07.279Z,7.67
2019-03-12T22:32:33.200Z,8.25
2019-03-12T22:34:59.230Z,6.30
2019-03-12T22:37:25.292Z,7.10
2019-03-12T22:39:51.231Z,8.58
2019-03-12T22:42:17.193Z,9.10
2019-03-12T22:44:43.232Z,7.78
2019-03-12T22:47:09.154Z,5.83
2019-03-12T22:49:35.088Z,6.20
2019-03-12T22:52:01.145Z,7.10
2019-03-12T22:54:27.159Z,7.60
2019-03-12T22:56:54.762Z,6.47
2019-03-12T22:59:20.718Z,7.67
2019-03-12T23:01:46.769Z,7.95
2019-03-12T23:04:12.964Z,9.65
2019-03-12T23:06:39.023Z,9.65
2019-03-12T23:09:05.272Z,9.10
2019-03-12T23:11:35.940Z,8.10
2019-03-12T23:13:59.354Z,9.15
2019-03-12T23:16:25.309Z,8.03
2019-03-12T23:18:53.673Z,5.83
2019-03-12T23:21:19.675Z,5.37
2019-03-12T23:23:45.765Z,6.20
2019-03-12T23:26:13.133Z,6.22
2019-03-12T23:28:39.118Z,8.65
2019-03-12T23:31:05.099Z,9.68
2019-03-12T23:33:31.179Z,10.50
2019-03-12T23:35:57.133Z,10.58
2019-03-12T23:38:23.117Z,11.95
2019-03-12T23:40:49.177Z,10.23
2019-03-12T23:43:15.241Z,9.48
2019-03-12T23:45:41.327Z,8.68
2019-03-12T23:48:07.398Z,9.28
2019-03-12T23:50:33.369Z,10.30
2019-03-12T23:52:59.327Z,8.38
2019-03-12T23:55:25.642Z,7.42
2019-03-12T23:57:51.642Z,7.92
